createdAt,value
2019-05-18T00:00:26.645Z,99.90
2019-05-18T00:02:54.579Z,99.90
2019-05-18T00:05:22.634Z,99.90
2019-05-18T00:07:52.233Z,99.90
2019-05-18T00:10:20.554Z,99.90
2019-05-18T00:12:49.089Z,99.90
2019-05-18T00:15:18.112Z,99.90
2019-05-18T00:18:16.092Z,99.90
2019-05-18T00:20:49.760Z,99.90
2019-05-18T00:23:26.496Z,99.90
2019-05-18T00:26:01.831Z,99.90
2019-05-18T00:28:32.672Z,99.90
2019-05-18T00:31:10.472Z,99.90
2019-05-18T00:33:44.278Z,99.90
2019-05-18T00:36:13.803Z,99.90
2019-05-18T00:38:45.269Z,99.90
2019-05-18T00:41:20.318Z,99.90
2019-05-18T00:43:48.104Z,99.90
2019-05-18T00:46:15.817Z,99.90
2019-05-18T00:48:47.517Z,99.90
2019-05-18T00:51:15.191Z,99.90
2019-05-18T00:53:44.008Z,99.90
2019-05-18T00:56:14.595Z,99.90
2019-05-18T00:58:43.940Z,99.90
2019-05-18T01:01:13.845Z,99.90
2019-05-18T01:03:43.929Z,99.90
2019-05-18T01:06:11.971Z,99.90
2019-05-18T01:08:44.517Z,99.90
2019-05-18T01:11:16.589Z,99.90
2019-05-18T01:13:46.102Z,99.90
2019-05-18T01:16:19.314Z,99.90
2019-05-18T01:18:50.783Z,99.90
2019-05-18T01:21:23.485Z,99.90
2019-05-18T01:23:52.054Z,99.90
2019-05-18T01:26:20.794Z,99.90
2019-05-18T01:28:50.388Z,99.90
2019-05-18T01:31:22.021Z,99.90
2019-05-18T01:33:50.768Z,99.90
2019-05-18T01:36:21.705Z,99.90
2019-05-18T01:38:49.453Z,99.90
2019-05-18T01:41:17.134Z,99.90
2019-05-18T01:43:47.571Z,99.90
2019-05-18T01:46:22.415Z,99.90
2019-05-18T01:48:50.736Z,99.90
2019-05-18T01:51:18.964Z,99.90
2019-05-18T01:53:50.664Z,99.90
2019-05-18T01:56:18.560Z,99.90
2019-05-18T01:58:49.121Z,99.90
2019-05-18T02:01:22.680Z,99.90
2019-05-18T02:03:52.149Z,99.90
2019-05-18T02:06:22.818Z,99.90
2019-05-18T02:08:51.470Z,99.90
2019-05-18T02:11:20.979Z,99.90
2019-05-18T02:13:51.006Z,99.90
2019-05-18T02:16:20.851Z,99.90
2019-05-18T02:18:49.972Z,99.90
2019-05-18T02:21:18.809Z,99.90
2019-05-18T02:23:47.899Z,99.90
2019-05-18T02:26:17.645Z,99.90
2019-05-18T02:28:49.980Z,99.90
2019-05-18T02:31:17.825Z,99.90
2019-05-18T02:33:45.488Z,99.90
2019-05-18T02:36:15.889Z,99.90
2019-05-18T02:38:43.777Z,99.90
2019-05-18T02:41:11.549Z,99.90
2019-05-18T02:43:41.488Z,99.90
2019-05-18T02:46:09.559Z,99.90
2019-05-18T02:48:48.393Z,99.90
2019-05-18T02:51:11.692Z,99.90
2019-05-18T02:53:41.478Z,99.90
2019-05-18T02:56:12.925Z,99.90
2019-05-18T02:58:42.162Z,99.90
2019-05-18T03:01:09.870Z,99.90
2019-05-18T03:03:37.836Z,99.90
2019-05-18T03:06:05.571Z,99.90
2019-05-18T03:08:33.961Z,99.90
2019-05-18T03:11:06.336Z,99.90
2019-05-18T03:13:35.499Z,99.90
2019-05-18T03:16:03.827Z,99.90
2019-05-18T03:18:36.140Z,99.90
2019-05-18T03:21:04.026Z,99.90
2019-05-18T03:23:34.186Z,99.90
2019-05-18T03:26:03.097Z,99.90
2019-05-18T03:28:33.354Z,99.90
2019-05-18T03:31:04.364Z,99.90
2019-05-18T03:33:32.140Z,99.90
2019-05-18T03:36:07.022Z,99.90
2019-05-18T03:38:34.987Z,99.90
2019-05-18T03:41:02.971Z,99.90
2019-05-18T03:43:31.038Z,99.90
2019-05-18T03:45:59.762Z,99.90
2019-05-18T03:48:27.512Z,99.90
2019-05-18T03:50:58.394Z,99.90
2019-05-18T03:53:30.664Z,99.90
2019-05-18T03:56:03.689Z,99.90
2019-05-18T03:58:32.062Z,99.90
2019-05-18T04:01:03.259Z,99.90
2019-05-18T04:03:33.737Z,99.90
2019-05-18T04:06:02.640Z,99.90
2019-05-18T04:08:31.449Z,99.90
2019-05-18T04:11:02.798Z,99.90
2019-05-18T04:13:33.633Z,99.90
2019-05-18T04:16:04.722Z,99.90
2019-05-18T04:18:42.889Z,99.90
2019-05-18T04:21:24.618Z,99.90
2019-05-18T04:24:12.364Z,99.90
2019-05-18T04:26:41.295Z,99.90
2019-05-18T04:29:10.808Z,99.90
2019-05-18T04:31:38.531Z,99.90
2019-05-18T04:34:06.309Z,99.90
2019-05-18T04:36:35.768Z,99.90
2019-05-18T04:39:05.245Z,99.90
2019-05-18T04:41:33.019Z,99.90
2019-05-18T04:44:00.751Z,99.90
2019-05-18T04:46:28.559Z,99.90
2019-05-18T04:49:01.853Z,99.90
2019-05-18T04:51:31.125Z,99.90
2019-05-18T04:53:58.994Z,99.90
2019-05-18T04:56:26.703Z,99.90
2019-05-18T04:58:56.874Z,99.90
2019-05-18T05:01:25.951Z,99.90
2019-05-18T05:03:53.818Z,99.90
2019-05-18T05:06:21.887Z,99.90
2019-05-18T05:08:52.477Z,99.90
2019-05-18T05:11:22.146Z,99.90
2019-05-18T05:13:54.467Z,99.90
2019-05-18T05:16:38.849Z,99.90
2019-05-18T05:19:14.344Z,99.90
2019-05-18T05:21:44.691Z,99.90
2019-05-18T05:24:29.079Z,99.90
2019-05-18T05:27:08.156Z,99.90
2019-05-18T05:29:40.082Z,99.90
2019-05-18T05:32:10.839Z,99.90
2019-05-18T05:34:42.317Z,99.90
2019-05-18T05:37:13.911Z,99.90
2019-05-18T05:39:44.256Z,99.90
2019-05-18T05:42:18.536Z,99.90
2019-05-18T05:44:46.507Z,99.90
2019-05-18T05:47:17.807Z,99.90
2019-05-18T05:49:52.959Z,99.90
2019-05-18T05:52:23.640Z,99.90
2019-05-18T05:54:58.778Z,99.90
2019-05-18T05:57:27.610Z,99.90
2019-05-18T06:00:10.528Z,99.90
2019-05-18T06:02:44.328Z,99.90
2019-05-18T06:05:12.662Z,99.90
2019-05-18T06:08:01.709Z,99.90
2019-05-18T06:10:32.749Z,99.90
2019-05-18T06:19:29.575Z,99.90
2019-05-18T06:21:57.783Z,99.90
2019-05-18T06:25:01.087Z,99.90
2019-05-18T06:28:11.239Z,99.90
2019-05-18T06:31:41.166Z,99.90
2019-05-18T06:35:22.571Z,99.90
2019-05-18T06:38:55.752Z,99.90
2019-05-18T06:42:16.637Z,99.90
2019-05-18T06:44:50.445Z,99.90
2019-05-18T06:47:19.533Z,99.90
2019-05-18T06:49:51.138Z,99.90
2019-05-18T06:56:14.349Z,99.90
2019-05-18T06:58:44.523Z,99.90
2019-05-18T07:01:15.456Z,99.90
2019-05-18T07:03:49.204Z,99.90
2019-05-18T07:06:17.520Z,99.90
2019-05-18T07:16:50.109Z,99.90
2019-05-18T07:22:35.585Z,99.90
2019-05-18T07:25:53.503Z,99.90
2019-05-18T07:28:22.184Z,99.90
2019-05-18T07:31:05.282Z,99.90
2019-05-18T07:33:44.491Z,99.90
2019-05-18T07:36:30.609Z,99.90
2019-05-18T07:38:59.093Z,99.90
2019-05-18T07:41:46.702Z,99.90
2019-05-18T07:45:00.307Z,99.90
2019-05-18T07:47:46.685Z,99.90
2019-05-18T07:50:26.731Z,99.90
2019-05-18T07:53:24.799Z,99.80
2019-05-18T07:57:04.748Z,99.70
2019-05-18T07:59:43.437Z,99.60
2019-05-18T08:03:32.866Z,98.30
2019-05-18T08:13:36.003Z,99.40
2019-05-18T08:16:24.213Z,98.90
2019-05-18T08:19:03.065Z,96.60
2019-05-18T08:21:35.023Z,99.40
2019-05-18T08:24:02.913Z,98.10
2019-05-18T08:26:33.180Z,97.30
2019-05-18T08:29:16.131Z,95.70
2019-05-18T08:31:44.833Z,96.20
2019-05-18T08:34:45.650Z,95.10
2019-05-18T08:37:42.096Z,97.40
2019-05-18T08:40:14.667Z,94.60
2019-05-18T08:42:49.512Z,94.50
2019-05-18T08:45:18.681Z,94.20
2019-05-18T08:47:48.744Z,92.50
2019-05-18T08:50:16.584Z,91.40
2019-05-18T08:52:44.580Z,92.00
2019-05-18T08:55:13.934Z,91.20
2019-05-18T09:05:20.046Z,86.10
2019-05-18T09:07:47.633Z,86.80
2019-05-18T09:10:20.101Z,87.60
2019-05-18T09:12:51.025Z,86.60
2019-05-18T09:15:29.535Z,89.80
2019-05-18T09:21:36.357Z,90.10
2019-05-18T09:24:19.296Z,86.30
2019-05-18T09:27:13.127Z,84.20
2019-05-18T09:30:02.999Z,86.60
2019-05-18T09:32:34.297Z,87.30
2019-05-18T09:35:06.767Z,85.50
2019-05-18T09:37:37.996Z,82.60
2019-05-18T09:40:14.918Z,83.50
2019-05-18T09:43:15.460Z,86.30
2019-05-18T09:46:33.023Z,87.00
2019-05-18T09:50:09.810Z,89.40
2019-05-18T09:53:05.854Z,90.10
2019-05-18T09:55:53.387Z,90.30
2019-05-18T09:59:25.870Z,88.00
2019-05-18T10:02:23.382Z,89.70
2019-05-18T10:08:33.381Z,89.90
2019-05-18T10:11:19.078Z,89.80
2019-05-18T10:13:49.688Z,88.50
2019-05-18T10:16:21.495Z,88.80
2019-05-18T10:18:50.579Z,87.70
2019-05-18T10:21:51.449Z,89.20
2019-05-18T10:24:19.785Z,88.70
2019-05-18T10:26:56.920Z,86.70
2019-05-18T10:30:01.613Z,85.20
2019-05-18T10:33:12.390Z,84.00
2019-05-18T10:36:04.526Z,84.30
2019-05-18T10:38:47.707Z,84.50
2019-05-18T10:41:27.565Z,82.50
2019-05-18T10:43:55.585Z,84.20
2019-05-18T10:46:24.811Z,84.10
2019-05-18T10:48:52.415Z,85.30
2019-05-18T10:51:21.315Z,84.30
2019-05-18T10:54:51.865Z,85.50
2019-05-18T10:57:22.838Z,85.20
2019-05-18T11:00:00.594Z,84.30
2019-05-18T11:02:37.025Z,84.10
2019-05-18T11:05:09.770Z,83.80
2019-05-18T11:07:37.584Z,83.10
2019-05-18T11:10:06.073Z,84.00
2019-05-18T11:15:01.992Z,83.20
2019-05-18T11:17:39.654Z,83.10
2019-05-18T11:27:18.789Z,84.60
2019-05-18T11:29:46.547Z,84.50
2019-05-18T11:32:14.423Z,83.90
2019-05-18T11:35:04.060Z,83.10
2019-05-18T11:37:56.653Z,82.50
2019-05-18T11:40:27.657Z,82.30
2019-05-18T11:43:00.463Z,81.30
2019-05-18T11:45:43.280Z,82.10
2019-05-18T11:48:17.180Z,82.80
2019-05-18T11:51:05.522Z,83.20
2019-05-18T11:53:33.278Z,81.00
2019-05-18T11:56:01.632Z,80.80
2019-05-18T12:02:55.491Z,81.60
2019-05-18T12:05:25.672Z,81.30
2019-05-18T12:07:58.130Z,81.40
2019-05-18T12:10:28.843Z,79.80
2019-05-18T12:13:02.920Z,80.70
2019-05-18T12:15:36.238Z,80.40
2019-05-18T12:18:06.270Z,78.80
2019-05-18T12:20:38.857Z,77.90
2019-05-18T12:23:09.760Z,78.20
2019-05-18T12:25:50.774Z,77.50
2019-05-18T12:28:27.461Z,78.30
2019-05-18T12:30:57.724Z,79.40
2019-05-18T12:33:25.817Z,78.70
2019-05-18T12:39:29.005Z,75.60
2019-05-18T12:42:01.285Z,74.80
2019-05-18T12:44:35.159Z,74.10
2019-05-18T12:47:05.450Z,73.70
2019-05-18T12:49:48.841Z,75.60
2019-05-18T12:52:19.382Z,76.00
2019-05-18T12:54:47.284Z,75.10
2019-05-18T12:57:41.383Z,75.80
2019-05-18T13:00:33.690Z,74.80
2019-05-18T13:03:28.974Z,74.30
2019-05-18T13:06:14.480Z,74.60
2019-05-18T13:08:53.022Z,75.40
2019-05-18T13:11:15.604Z,76.00
2019-05-18T13:14:02.482Z,76.40
2019-05-18T13:16:55.387Z,76.70
2019-05-18T13:19:28.659Z,76.80
2019-05-18T13:22:11.090Z,76.60
2019-05-18T13:24:52.163Z,76.70
2019-05-18T13:27:48.471Z,76.10
2019-05-18T13:30:34.869Z,76.90
2019-05-18T13:33:05.753Z,77.00
2019-05-18T13:42:43.611Z,77.20
2019-05-18T13:45:11.280Z,77.80
2019-05-18T13:47:41.042Z,76.90
2019-05-18T13:50:20.251Z,77.10
2019-05-18T13:53:20.422Z,77.40
2019-05-18T13:59:25.178Z,77.80
2019-05-18T14:03:07.328Z,78.20
2019-05-18T14:13:35.511Z,77.10
2019-05-18T14:16:23.005Z,76.80
2019-05-18T14:19:56.310Z,77.20
2019-05-18T14:25:56.205Z,77.20
2019-05-18T14:35:46.837Z,82.00
2019-05-18T14:42:33.530Z,79.00
2019-05-18T14:45:49.207Z,78.80
2019-05-18T14:48:29.382Z,79.50
2019-05-18T14:50:56.712Z,78.90
2019-05-18T14:53:27.797Z,77.70
2019-05-18T14:56:14.498Z,77.70
2019-05-18T14:58:44.093Z,76.30
2019-05-18T15:01:15.371Z,76.10
2019-05-18T15:03:46.436Z,76.40
2019-05-18T15:06:16.063Z,76.60
2019-05-18T15:08:43.715Z,76.80
2019-05-18T15:11:51.022Z,76.40
2019-05-18T15:14:52.735Z,76.30
2019-05-18T15:17:21.062Z,75.70
2019-05-18T15:19:50.417Z,75.80
2019-05-18T15:22:18.117Z,76.20
2019-05-18T15:24:45.917Z,76.50
2019-05-18T15:27:15.959Z,75.90
2019-05-18T15:29:44.107Z,76.00
2019-05-18T15:32:13.451Z,76.30
2019-05-18T15:39:17.098Z,75.80
2019-05-18T15:41:44.788Z,76.00
2019-05-18T15:44:17.126Z,75.20
2019-05-18T15:46:45.010Z,75.30
2019-05-18T15:49:25.542Z,75.30
2019-05-18T15:51:58.345Z,74.30
2019-05-18T15:54:31.791Z,74.30
2019-05-18T15:57:19.641Z,73.80
2019-05-18T16:00:21.503Z,73.70
2019-05-18T16:03:10.836Z,73.80
2019-05-18T16:05:53.267Z,73.70
2019-05-18T16:08:32.360Z,73.70
2019-05-18T16:11:12.161Z,72.80
2019-05-18T16:13:55.262Z,72.30
2019-05-18T16:16:30.444Z,73.00
2019-05-18T16:19:11.181Z,73.70
2019-05-18T16:21:36.820Z,80.70
2019-05-18T16:24:15.960Z,87.70
2019-05-18T16:27:12.112Z,90.30
2019-05-18T16:30:24.080Z,91.60
2019-05-18T16:33:14.285Z,92.50
2019-05-18T16:35:42.259Z,93.00
2019-05-18T16:38:10.575Z,93.20
2019-05-18T16:41:29.671Z,93.10
2019-05-18T16:44:14.339Z,93.40
2019-05-18T16:46:42.117Z,93.80
2019-05-18T16:49:12.305Z,93.80
2019-05-18T16:51:47.633Z,93.60
2019-05-18T16:54:15.453Z,92.80
2019-05-18T16:56:54.067Z,92.20
2019-05-18T17:03:06.519Z,93.00
2019-05-18T17:05:39.782Z,92.40
2019-05-18T17:08:30.486Z,92.60
2019-05-18T17:11:31.296Z,92.30
2019-05-18T17:14:45.015Z,92.30
2019-05-18T17:17:24.490Z,92.20
2019-05-18T17:19:55.493Z,92.30
2019-05-18T17:22:25.595Z,92.20
2019-05-18T17:24:53.267Z,92.20
2019-05-18T17:27:21.352Z,91.70
2019-05-18T17:29:50.974Z,91.60
2019-05-18T17:32:24.506Z,91.50
2019-05-18T17:34:53.995Z,91.00
2019-05-18T17:37:24.710Z,91.00
2019-05-18T17:39:52.421Z,91.00
2019-05-18T17:42:21.155Z,90.80
2019-05-18T17:44:50.123Z,90.70
2019-05-18T17:47:32.959Z,91.00
2019-05-18T17:50:54.011Z,91.00
2019-05-18T17:53:21.902Z,91.60
2019-05-18T17:55:55.446Z,91.50
2019-05-18T17:58:32.114Z,91.80
2019-05-18T18:01:00.010Z,91.90
2019-05-18T18:03:47.692Z,91.80
2019-05-18T18:06:16.364Z,92.10
2019-05-18T18:08:46.720Z,92.40
2019-05-18T18:11:16.299Z,92.60
2019-05-18T18:13:47.264Z,92.80
2019-05-18T18:16:17.081Z,92.70
2019-05-18T18:18:57.971Z,92.20
2019-05-18T18:21:34.680Z,91.90
2019-05-18T18:24:05.662Z,91.40
2019-05-18T18:26:37.709Z,91.60
2019-05-18T18:29:05.307Z,91.40
2019-05-18T18:31:33.639Z,91.50
2019-05-18T18:34:02.739Z,91.60
2019-05-18T18:36:34.111Z,91.70
2019-05-18T18:39:11.860Z,92.00
2019-05-18T18:41:57.835Z,92.50
2019-05-18T18:45:01.944Z,93.10
2019-05-18T18:47:37.236Z,93.30
2019-05-18T18:50:16.314Z,93.60
2019-05-18T18:52:46.190Z,93.80
2019-05-18T18:55:16.856Z,93.80
2019-05-18T18:57:44.809Z,93.90
2019-05-18T19:00:15.356Z,94.00
2019-05-18T19:03:41.018Z,94.10
2019-05-18T19:06:14.152Z,94.20
2019-05-18T19:08:45.274Z,94.60
2019-05-18T19:11:34.843Z,94.90
2019-05-18T19:14:31.402Z,95.30
2019-05-18T19:17:05.089Z,95.60
2019-05-18T19:19:35.502Z,96.10
2019-05-18T19:22:04.575Z,96.50
2019-05-18T19:24:34.349Z,97.00
2019-05-18T19:27:05.099Z,97.50
2019-05-18T19:29:45.489Z,97.90
2019-05-18T19:32:15.871Z,98.20
2019-05-18T19:34:43.494Z,98.70
2019-05-18T19:37:16.408Z,99.00
2019-05-18T19:39:50.889Z,99.50
2019-05-18T19:42:39.660Z,99.70
2019-05-18T19:45:20.658Z,99.90
2019-05-18T19:47:49.709Z,99.90
2019-05-18T19:50:20.887Z,99.90
2019-05-18T19:53:04.711Z,99.90
2019-05-18T19:55:32.400Z,99.90
2019-05-18T19:58:09.111Z,99.90
2019-05-18T20:00:50.302Z,99.90
2019-05-18T20:03:18.938Z,99.90
2019-05-18T20:05:48.158Z,99.90
2019-05-18T20:08:44.072Z,99.90
2019-05-18T20:12:08.643Z,99.90
2019-05-18T20:14:41.924Z,99.90
2019-05-18T20:17:12.515Z,99.90
2019-05-18T20:19:40.662Z,99.90
2019-05-18T20:22:08.561Z,99.90
2019-05-18T20:24:36.700Z,99.90
2019-05-18T20:27:07.826Z,99.90
2019-05-18T20:29:45.030Z,99.90
2019-05-18T20:32:09.459Z,99.90
2019-05-18T20:34:37.584Z,99.90
2019-05-18T20:37:05.490Z,99.90
2019-05-18T20:39:53.760Z,99.90
2019-05-18T20:42:25.370Z,99.90
2019-05-18T20:44:58.990Z,99.90
2019-05-18T20:47:28.628Z,99.90
2019-05-18T20:50:04.632Z,99.90
2019-05-18T20:52:33.154Z,99.90
2019-05-18T20:55:01.492Z,99.90
2019-05-18T20:57:31.875Z,99.90
2019-05-18T21:00:30.072Z,99.90
2019-05-18T21:03:53.877Z,99.90
2019-05-18T21:06:23.718Z,99.90
2019-05-18T21:08:58.669Z,99.90
2019-05-18T21:11:29.313Z,99.90
2019-05-18T21:13:57.796Z,99.90
2019-05-18T21:16:44.024Z,99.90
2019-05-18T21:19:20.438Z,99.90
2019-05-18T21:21:48.236Z,99.90
2019-05-18T21:24:16.029Z,99.90
2019-05-18T21:26:47.487Z,99.90
2019-05-18T21:29:21.619Z,99.90
2019-05-18T21:32:06.948Z,99.90
2019-05-18T21:34:35.683Z,99.90
2019-05-18T21:37:03.445Z,99.90
2019-05-18T21:40:06.523Z,99.90
2019-05-18T21:42:48.918Z,99.90
2019-05-18T21:45:20.994Z,99.90
2019-05-18T21:47:50.972Z,99.90
2019-05-18T21:50:23.946Z,99.90
2019-05-18T21:52:54.495Z,99.90
2019-05-18T21:55:22.105Z,99.90
2019-05-18T21:57:57.806Z,99.90
2019-05-18T22:00:32.616Z,99.90
2019-05-18T22:03:01.606Z,99.90
2019-05-18T22:05:29.132Z,99.90
2019-05-18T22:07:59.731Z,99.90
2019-05-18T22:10:27.403Z,99.90
2019-05-18T22:13:01.353Z,99.90
2019-05-18T22:15:46.778Z,99.90
2019-05-18T22:18:24.438Z,99.90
2019-05-18T22:20:57.488Z,99.90
2019-05-18T22:23:32.973Z,99.90
2019-05-18T22:26:00.898Z,99.90
2019-05-18T22:29:12.191Z,99.90
2019-05-18T22:35:25.512Z,99.90
2019-05-18T22:37:53.768Z,99.90
2019-05-18T22:40:23.513Z,99.90
2019-05-18T22:42:53.368Z,99.90
2019-05-18T22:45:22.330Z,99.90
2019-05-18T22:47:53.838Z,99.90
2019-05-18T22:50:39.781Z,99.90
2019-05-18T22:53:33.252Z,99.90
2019-05-18T22:56:09.587Z,99.90
2019-05-18T22:58:47.496Z,99.90
2019-05-18T23:01:20.499Z,99.90
2019-05-18T23:03:51.191Z,99.90
2019-05-18T23:06:24.459Z,99.90
2019-05-18T23:08:52.631Z,99.90
2019-05-18T23:11:23.069Z,99.90
2019-05-18T23:13:50.729Z,99.90
2019-05-18T23:16:20.382Z,99.90
2019-05-18T23:18:59.972Z,99.90
2019-05-18T23:21:29.909Z,99.90
2019-05-18T23:23:57.800Z,99.90
2019-05-18T23:26:37.855Z,99.90
2019-05-18T23:29:08.239Z,99.90
2019-05-18T23:31:42.879Z,99.90
2019-05-18T23:34:10.489Z,99.90
2019-05-18T23:36:38.519Z,99.90
2019-05-18T23:39:19.776Z,99.90
2019-05-18T23:41:47.369Z,99.90
2019-05-18T23:44:17.688Z,99.90
2019-05-18T23:46:47.277Z,99.90
2019-05-18T23:49:18.381Z,99.90
2019-05-18T23:53:11.243Z,99.90
2019-05-18T23:56:47.255Z,99.90
2019-05-18T23:59:13.789Z,99.90
